Time;durP1;ratioP1;P1;durP2;ratioP2;P2;SDS_P1;SDS_P2;PMS_P1;PMS_P2;Temp;Humidity;BMP_temperature;BMP_pressure;BME280_temperature;BME280_humidity;BME280_pressure;Samples;Min_cycle;Max_cycle;Signal;HPM_P1;HPM_P2
2021/06/30 00:02:21;;;;;;;7.50;4.37;;;;;;;21.55;45.50;98714.87;531064;1092;117651;-62
2021/06/30 00:12:32;;;;;;;3.83;3.53;;;;;;;21.54;45.62;98675.83;530310;1093;116501;-62
2021/06/30 00:22:44;;;;;;;4.67;4.27;;;;;;;21.48;46.45;98644.53;530974;1093;116682;-62
2021/06/30 00:32:57;;;;;;;4.60;4.20;;;;;;;21.52;46.66;98644.98;530303;1092;116593;-62
2021/06/30 00:43:08;;;;;;;4.47;4.07;;;;;;;21.55;47.11;98633.91;530990;1092;115992;-62
2021/06/30 00:53:19;;;;;;;5.53;4.53;;;;;;;21.61;47.53;98641.16;531036;1092;115808;-62
2021/06/30 01:03:31;;;;;;;5.03;4.60;;;;;;;21.63;47.45;98616.91;530327;1093;116514;-63
2021/06/30 01:13:43;;;;;;;4.98;4.58;;;;;;;21.60;48.13;98636.00;531041;1092;116688;-62
2021/06/30 01:23:54;;;;;;;4.70;4.33;;;;;;;21.58;48.12;98704.81;530310;1092;116747;-62
2021/06/30 01:34:05;;;;;;;6.03;4.40;;;;;;;21.39;49.34;98717.77;531005;1092;116143;-62
2021/06/30 01:44:17;;;;;;;11.50;7.67;;;;;;;20.92;54.35;98814.16;531054;1092;116140;-61
2021/06/30 01:54:28;;;;;;;11.00;8.93;;;;;;;20.02;58.91;98820.17;530281;1092;116527;-62
2021/06/30 02:04:41;;;;;;;7.60;6.67;;;;;;;19.30;63.18;98835.39;531044;1092;116618;-62
2021/06/30 02:14:52;;;;;;;6.63;4.73;;;;;;;19.16;64.47;98836.97;530268;1093;117692;-61
2021/06/30 02:25:03;;;;;;;7.23;6.20;;;;;;;18.89;66.00;98686.59;531078;1093;115864;-62
2021/06/30 02:35:17;;;;;;;6.50;5.90;;;;;;;18.82;67.16;98789.34;531054;1093;116433;-61
2021/06/30 02:45:29;;;;;;;5.75;5.25;;;;;;;18.81;67.55;98729.98;530273;1092;116778;-61
2021/06/30 02:55:40;;;;;;;8.00;7.33;;;;;;;18.83;67.92;98674.83;531041;1092;116877;-61
2021/06/30 03:05:51;;;;;;;5.60;5.10;;;;;;;18.86;68.55;98671.80;530252;1092;116349;-61
2021/06/30 03:16:02;;;;;;;6.63;6.13;;;;;;;18.64;69.00;98540.47;531007;1092;116797;-62
2021/06/30 03:26:14;;;;;;;8.10;5.47;;;;;;;18.49;69.98;98574.97;531033;1093;116191;-61
2021/06/30 03:36:25;;;;;;;8.43;6.50;;;;;;;18.69;70.26;98585.98;530128;1091;116692;-61
2021/06/30 03:46:36;;;;;;;7.57;6.63;;;;;;;18.87;70.42;98635.38;530903;1092;116197;-63
2021/06/30 03:56:48;;;;;;;7.30;6.60;;;;;;;19.03;70.33;98637.98;530303;1092;116433;-60
2021/06/30 04:06:59;;;;;;;8.70;8.00;;;;;;;19.14;70.83;98625.28;530956;1093;115568;-61
2021/06/30 04:17:10;;;;;;;7.70;6.27;;;;;;;19.23;71.17;98600.27;531019;1092;116406;-62
2021/06/30 04:27:22;;;;;;;8.63;7.83;;;;;;;19.27;71.39;98595.39;530292;1092;117393;-62
2021/06/30 04:37:33;;;;;;;7.00;5.85;;;;;;;19.44;71.40;98620.88;531048;1092;116646;-62
2021/06/30 04:47:44;;;;;;;6.57;6.00;;;;;;;19.73;71.35;98635.23;530294;1093;116199;-62
2021/06/30 04:57:55;;;;;;;6.40;5.80;;;;;;;19.95;70.63;98640.72;531048;1092;116672;-61
2021/06/30 05:08:07;;;;;;;4.93;4.53;;;;;;;20.41;69.61;98653.05;530168;1091;115636;-61
2021/06/30 05:18:19;;;;;;;6.50;4.67;;;;;;;20.90;68.72;98680.11;530258;1092;117027;-61
2021/06/30 05:28:30;;;;;;;5.63;4.93;;;;;;;22.45;67.39;98689.41;531000;1093;117106;-61
2021/06/30 05:38:42;;;;;;;6.03;5.53;;;;;;;26.53;61.76;98682.45;531010;1092;117299;-62
2021/06/30 05:48:54;;;;;;;5.10;4.70;;;;;;;29.69;53.62;98692.23;530996;1093;115724;-62
2021/06/30 05:59:06;;;;;;;5.80;5.17;;;;;;;30.30;51.70;98690.66;531073;1092;116747;-62
2021/06/30 06:09:17;;;;;;;4.50;4.20;;;;;;;34.41;45.46;98697.94;530290;1093;116686;-62
2021/06/30 06:19:28;;;;;;;3.93;3.63;;;;;;;42.59;36.55;98700.83;530978;1092;116615;-62
2021/06/30 06:29:40;;;;;;;3.57;3.37;;;;;;;47.21;28.73;98704.70;531032;1092;117590;-63
2021/06/30 06:39:52;;;;;;;3.48;3.18;;;;;;;48.52;24.14;98715.28;531004;1092;116170;-62
2021/06/30 06:50:03;;;;;;;3.65;2.45;;;;;;;52.18;20.20;98696.42;531034;1090;116528;-62
2021/06/30 07:00:17;;;;;;;5.18;2.70;;;;;;;51.53;17.55;98686.83;519034;1092;116782;-62
2021/06/30 07:10:28;;;;;;;3.15;2.85;;;;;;;43.39;20.93;98689.97;531036;1091;117714;-63
2021/06/30 07:20:40;;;;;;;3.87;2.43;;;;;;;40.18;24.08;98702.55;530992;1093;118543;-62
2021/06/30 07:30:46;;;;;;;7.17;2.50;;;;;;;47.79;19.60;98699.43;530994;1092;117706;-63
2021/06/30 07:40:58;;;;;;;2.10;1.85;;;;;;;46.19;18.76;98709.28;531053;1092;116224;-63
2021/06/30 07:51:09;;;;;;;7.07;2.67;;;;;;;39.59;22.56;98700.80;530353;1093;117541;-62
2021/06/30 08:01:15;;;;;;;4.60;2.00;;;;;;;37.37;25.60;98690.48;530687;1093;117029;-62
2021/06/30 08:11:24;;;;;;;3.35;2.10;;;;;;;35.33;28.28;98692.27;531054;1092;115969;-62
2021/06/30 08:21:30;;;;;;;2.60;2.07;;;;;;;34.17;29.57;98695.02;530284;1092;116893;-63
2021/06/30 08:31:37;;;;;;;1.70;1.60;;;;;;;32.93;30.71;98699.34;531021;1093;116401;-62
2021/06/30 08:41:43;;;;;;;2.25;1.95;;;;;;;32.20;31.75;98706.33;530394;1092;116304;-63
2021/06/30 08:51:53;;;;;;;1.25;1.10;;;;;;;31.29;32.98;98707.00;531032;1092;116314;-62
2021/06/30 09:01:59;;;;;;;2.67;1.03;;;;;;;31.20;33.44;98710.41;531082;1093;116835;-62
2021/06/30 09:12:06;;;;;;;3.48;1.55;;;;;;;30.85;33.65;98704.35;530306;1092;116015;-62
2021/06/30 09:22:18;;;;;;;2.37;1.73;;;;;;;30.35;35.12;98717.81;531081;1092;116205;-62
2021/06/30 09:32:24;;;;;;;1.63;1.53;;;;;;;30.09;35.68;98724.76;531061;1093;116167;-62
2021/06/30 09:42:33;;;;;;;6.08;2.08;;;;;;;29.86;35.42;98721.97;530348;1092;116279;-62
2021/06/30 09:52:41;;;;;;;2.80;1.80;;;;;;;30.25;35.77;98721.22;530971;1092;115800;-63
2021/06/30 10:02:49;;;;;;;3.23;1.60;;;;;;;30.18;35.77;98723.27;530309;1092;116716;-62
2021/06/30 10:12:55;;;;;;;2.57;1.60;;;;;;;30.44;36.36;98720.91;531044;1092;116019;-62
2021/06/30 10:23:02;;;;;;;2.33;1.55;;;;;;;30.08;36.28;98742.06;531052;1093;117711;-62
2021/06/30 10:33:09;;;;;;;2.50;2.10;;;;;;;29.91;37.00;98730.16;530283;1092;117931;-62
2021/06/30 10:43:15;;;;;;;5.48;2.20;;;;;;;29.65;37.42;98742.45;531028;1092;117420;-63
2021/06/30 10:53:39;;;;;;;1.98;1.85;;;;;;;29.64;37.11;98735.40;531053;1092;117122;-62
2021/06/30 11:03:50;;;;;;;2.43;2.23;;;;;;;29.33;37.11;98745.67;531016;1092;116903;-62
2021/06/30 11:14:04;;;;;;;3.00;1.40;;;;;;;28.82;37.60;98754.42;531036;1092;117144;-63
2021/06/30 11:34:42;;;;;;;1.80;0.93;;;;;;;29.50;38.03;98746.54;528511;1092;64235;-63
2021/06/30 11:44:48;;;;;;;3.23;1.15;;;;;;;29.08;37.83;98734.14;530053;1093;116611;-62
2021/06/30 11:54:59;;;;;;;1.53;0.90;;;;;;;29.02;38.64;98709.97;530963;1092;116036;-62
2021/06/30 12:05:14;;;;;;;7.17;1.30;;;;;;;29.10;37.97;98706.88;530458;1092;116014;-62
2021/06/30 12:15:21;;;;;;;0.63;0.60;;;;;;;28.90;37.64;98718.11;529276;1092;116420;-62
2021/06/30 12:25:29;;;;;;;1.10;1.00;;;;;;;29.12;37.87;98695.81;530088;1093;115306;-62
2021/06/30 12:35:38;;;;;;;8.73;1.53;;;;;;;28.85;38.05;98704.52;530222;1092;115836;-62
2021/06/30 12:45:46;;;;;;;2.13;1.27;;;;;;;29.11;37.92;98697.71;529990;1093;115860;-63
2021/06/30 12:55:55;;;;;;;0.70;0.70;;;;;;;29.16;37.94;98703.20;516961;1092;116391;-61
2021/06/30 13:06:16;;;;;;;3.30;0.90;;;;;;;29.35;37.76;98695.69;529181;1092;116712;-61
2021/06/30 13:16:23;;;;;;;0.63;0.50;;;;;;;29.03;38.43;98698.93;530233;1092;116452;-62
2021/06/30 13:37:08;;;;;;;1.73;0.87;;;;;;;29.00;38.89;98687.78;529723;1093;117475;-63
2021/06/30 13:47:15;;;;;;;0.80;0.80;;;;;;;28.58;39.32;98699.64;529901;1093;116460;-62
2021/06/30 13:57:22;;;;;;;1.27;1.17;;;;;;;28.70;39.71;98702.30;529176;1093;115983;-61
2021/06/30 14:07:28;;;;;;;1.08;0.90;;;;;;;28.13;40.37;98699.20;529932;1092;116998;-65
2021/06/30 14:17:35;;;;;;;3.93;1.53;;;;;;;27.94;40.29;98691.23;529943;1092;116389;-62
2021/06/30 14:27:41;;;;;;;2.28;1.00;;;;;;;28.17;40.21;98675.28;529211;1092;116104;-62
2021/06/30 14:37:48;;;;;;;2.30;1.40;;;;;;;28.37;39.86;98685.72;529967;1093;116383;-63
2021/06/30 14:47:57;;;;;;;2.85;1.38;;;;;;;28.35;39.41;98675.14;529221;1092;115900;-62
2021/06/30 14:58:04;;;;;;;1.00;1.00;;;;;;;28.01;39.94;98693.00;529987;1092;117310;-63
2021/06/30 15:08:10;;;;;;;5.45;1.60;;;;;;;27.88;40.60;98699.44;529991;1092;115729;-63
2021/06/30 15:18:18;;;;;;;2.53;1.60;;;;;;;28.10;39.70;98694.27;529202;1092;116085;-63
2021/06/30 15:28:25;;;;;;;1.80;1.40;;;;;;;27.84;40.00;98701.78;529921;1092;116143;-63
2021/06/30 15:38:30;;;;;;;;;;;;;;;27.82;40.06;98723.61;529907;1092;116082;-61
2021/06/30 15:48:35;;;;;;;;;;;;;;;27.88;39.73;98724.55;529526;1092;102573;-62
2021/06/30 15:58:40;;;;;;;;;;;;;;;27.81;40.43;98723.83;530165;1092;101815;-63
2021/06/30 16:08:46;;;;;;;;;;;;;;;27.41;41.20;98719.86;529546;1092;101921;-63
2021/06/30 16:18:51;;;;;;;;;;;;;;;27.10;41.20;98722.57;530265;1092;102166;-63
2021/06/30 16:28:55;;;;;;;;;;;;;;;26.99;41.30;98720.66;530150;1091;101974;-63
2021/06/30 16:39:00;;;;;;;;;;;;;;;26.80;41.66;98720.64;529568;1093;103978;-63
2021/06/30 16:49:05;;;;;;;;;;;;;;;26.56;41.64;98717.01;530201;1092;102157;-62
2021/06/30 16:59:10;;;;;;;;;;;;;;;26.14;42.65;98717.59;530131;1093;103245;-63
2021/06/30 17:09:15;;;;;;;;;;;;;;;25.77;42.82;98709.45;529519;1092;102892;-62
2021/06/30 17:19:20;;;;;;;;;;;;;;;25.08;44.04;98702.86;530215;1093;102318;-62
2021/06/30 17:29:25;;;;;;;;;;;;;;;24.61;45.47;98708.44;530315;1093;103219;-62
2021/06/30 17:39:30;;;;;;;;;;;;;;;24.27;46.17;98707.70;529543;1092;102786;-61
2021/06/30 17:49:56;;;;;;;;;;;;;;;24.11;47.29;98727.73;530466;1092;102423;-62
2021/06/30 18:00:00;;;;;;;;;;;;;;;25.03;46.22;98724.19;529662;1092;102902;-62
2021/06/30 18:10:06;;;;;;;;;;;;;;;24.34;46.91;98724.59;530320;1092;102229;-62
2021/06/30 18:20:12;;;;;;;;;;;;;;;23.87;48.13;98728.11;530215;1092;102000;-62
2021/06/30 18:30:17;;;;;;;;;;;;;;;23.41;49.15;98742.30;529763;1093;102198;-63
2021/06/30 18:40:22;;;;;;;;;;;;;;;22.98;50.18;98759.45;530429;1092;101960;-61
2021/06/30 18:50:27;;;;;;;;;;;;;;;22.57;51.26;98763.78;530489;1092;102516;-63
2021/06/30 19:00:33;;;;;;;;;;;;;;;22.14;52.02;98788.77;529766;1092;103212;-64
2021/06/30 19:10:38;;;;;;;;;;;;;;;21.75;52.97;98793.56;530168;1092;102408;-63
2021/06/30 19:20:47;;;;;;;;;;;;;;;21.42;54.09;98811.69;529524;1093;102086;-62
2021/06/30 19:30:52;;;;;;;;;;;;;;;21.05;54.99;98824.19;530261;1092;103931;-63
2021/06/30 19:41:01;;;;;;;;;;;;;;;20.72;56.25;98840.53;530610;1092;102665;-62
2021/06/30 19:51:11;;;;;;;;;;;;;;;20.39;56.95;98846.17;529729;1093;103610;-62
2021/06/30 20:01:16;;;;;;;;;;;;;;;20.09;57.69;98854.92;530264;1093;102077;-63
2021/06/30 20:11:21;;;;;;;;;;;;;;;19.86;58.66;98854.91;530316;1093;102092;-62
2021/06/30 20:21:26;;;;;;;;;;;;;;;19.64;59.42;98870.67;530713;1092;101432;-62
2021/06/30 20:31:31;;;;;;;;;;;;;;;19.48;60.23;98876.07;529080;1092;102586;-63
2021/06/30 20:41:36;;;;;;;;;;;;;;;19.26;60.80;98862.52;522657;1091;102254;-63
2021/06/30 20:51:41;;;;;;;;;;;;;;;19.10;61.49;98879.38;531342;1092;102185;-62
2021/06/30 21:01:46;;;;;;;;;;;;;;;18.91;62.20;98865.45;531392;1092;101888;-62
2021/06/30 21:11:51;;;;;;;;;;;;;;;18.76;62.79;98859.99;530689;1092;101435;-62
2021/06/30 21:21:56;;;;;;;;;;;;;;;18.76;63.55;98862.65;530888;1092;102164;-63
2021/06/30 21:32:01;;;;;;;;;;;;;;;18.76;63.31;98868.81;531068;1092;102032;-62
2021/06/30 21:42:07;;;;;;;;;;;;;;;18.77;63.49;98866.97;530740;1093;101945;-62
2021/06/30 21:52:11;;;;;;;;;;;;;;;18.71;64.09;98863.16;531167;1092;102430;-62
2021/06/30 22:02:16;;;;;;;;;;;;;;;18.52;64.35;98871.48;531373;1092;102667;-63
2021/06/30 22:12:21;;;;;;;;;;;;;;;18.37;64.65;98868.69;530693;1093;102190;-63
2021/06/30 22:22:32;;;;;;;;;;;;;;;18.11;65.14;98857.22;531155;1093;102427;-63
2021/06/30 22:32:37;;;;;;;;;;;;;;;17.90;65.38;98849.71;531364;1091;103435;-63
2021/06/30 22:42:42;;;;;;;;;;;;;;;17.53;66.01;98861.55;514710;1093;102003;-62
2021/06/30 22:52:46;;;;;;;;;;;;;;;17.22;66.53;98857.64;513920;1091;102024;-62
2021/06/30 23:02:51;;;;;;;;;;;;;;;16.97;67.18;98852.20;524121;1093;102596;-63
2021/06/30 23:12:56;;;;;;;;;;;;;;;16.78;67.85;98853.25;531417;1092;102086;-63
2021/06/30 23:23:02;;;;;;;;;;;;;;;16.70;68.42;98856.70;531385;1093;101731;-63
2021/06/30 23:33:07;;;;;;;;;;;;;;;16.74;68.64;98850.08;530725;1092;102877;-62
2021/06/30 23:43:12;;;;;;;;;;;;;;;16.70;68.65;98858.50;531357;1090;102358;-62
2021/06/30 23:53:17;;;;;;;;;;;;;;;16.74;69.02;98857.22;531428;1090;103261;-62
